Time;durP1;ratioP1;P1;durP2;ratioP2;P2;SDS_P1;SDS_P2;PMS_P1;PMS_P2;Temp;Humidity;BMP_temperature;BMP_pressure;BME280_temperature;BME280_humidity;BME280_pressure;Samples;Min_cycle;Max_cycle;Signal;HPM_P1;HPM_P2
2023/03/12 00:02:16;;;;;;;1.30;1.20;;;;;;;11.63;47.74;99699.28;105992;1280;25302;-50
2023/03/12 00:04:45;;;;;;;1.50;1.30;;;;;;;11.62;47.53;99726.80;105300;1279;1003763;-50
2023/03/12 00:07:13;;;;;;;2.80;1.20;;;;;;;11.60;47.86;99729.64;105945;1280;25364;-51
2023/03/12 00:13:10;;;;;;;1.20;1.10;;;;;;;11.61;47.90;99756.00;103871;1298;545056;-50
2023/03/12 00:15:38;;;;;;;2.20;1.20;;;;;;;11.58;47.83;99757.34;106120;1280;25357;-51
2023/03/12 00:18:08;;;;;;;1.90;0.90;;;;;;;11.57;48.08;99754.95;105841;1286;25409;-50
2023/03/12 00:20:36;;;;;;;1.30;1.10;;;;;;;11.58;48.48;99760.14;106147;1283;23860;-50
2023/03/12 00:23:05;;;;;;;1.50;1.00;;;;;;;11.60;48.58;99763.86;106130;1280;25405;-50
2023/03/12 00:25:34;;;;;;;2.80;1.30;;;;;;;11.60;48.43;99769.05;105535;1276;1003646;-50
2023/03/12 00:28:04;;;;;;;1.00;0.90;;;;;;;11.61;48.35;99777.52;106309;1276;25380;-51
2023/03/12 00:30:32;;;;;;;1.20;1.10;;;;;;;11.61;48.29;99787.44;106583;1276;24202;-51
2023/03/12 00:33:02;;;;;;;1.20;1.00;;;;;;;11.61;48.26;99785.69;106442;1279;25363;-51
2023/03/12 00:35:32;;;;;;;1.30;1.10;;;;;;;11.63;48.14;99788.08;106484;1277;22533;-51
2023/03/12 00:38:00;;;;;;;3.10;1.20;;;;;;;11.63;48.07;99791.52;106550;1276;25417;-51
2023/03/12 00:40:29;;;;;;;1.30;1.10;;;;;;;11.65;47.45;99790.60;106429;1276;25353;-51
2023/03/12 00:42:57;;;;;;;1.90;1.30;;;;;;;11.59;47.82;99795.69;106561;1277;24229;-50
2023/03/12 00:45:26;;;;;;;2.00;1.20;;;;;;;11.58;47.71;99804.24;106411;1281;25414;-51
2023/03/12 00:47:55;;;;;;;2.30;1.30;;;;;;;11.46;47.57;99808.19;106499;1277;25757;-50
2023/03/12 00:50:23;;;;;;;1.30;1.20;;;;;;;11.36;47.83;99820.92;106576;1276;23873;-51
2023/03/12 00:52:52;;;;;;;1.80;1.50;;;;;;;11.43;47.16;99825.30;106503;1276;25385;-51
2023/03/12 00:55:21;;;;;;;2.80;1.20;;;;;;;11.50;47.11;99828.71;106444;1277;22634;-50
2023/03/12 00:57:49;;;;;;;2.00;1.50;;;;;;;11.50;46.72;99834.27;106441;1276;25425;-50
2023/03/12 01:00:18;;;;;;;1.90;1.20;;;;;;;11.46;46.08;99833.71;106429;1274;25334;-50
2023/03/12 01:02:47;;;;;;;2.20;1.20;;;;;;;11.39;46.45;99840.59;106478;1275;23728;-50
2023/03/12 01:05:16;;;;;;;1.50;1.10;;;;;;;11.33;46.83;99843.79;106535;1280;22779;-50
2023/03/12 01:07:46;;;;;;;2.70;1.20;;;;;;;11.17;47.18;99848.95;106478;1277;25243;-50
2023/03/12 01:10:16;;;;;;;1.40;1.30;;;;;;;11.11;47.68;99846.56;106776;1269;25519;-50
2023/03/12 01:12:46;;;;;;;2.00;1.60;;;;;;;11.10;47.58;99849.73;106820;1273;25628;-50
2023/03/12 01:15:15;;;;;;;1.90;1.20;;;;;;;11.19;47.40;99855.11;106163;1270;1003624;-50
2023/03/12 01:17:44;;;;;;;1.30;1.20;;;;;;;11.24;47.04;99858.91;106554;1274;25476;-51
2023/03/12 01:20:12;;;;;;;1.10;1.00;;;;;;;11.24;47.12;99862.36;106750;1270;22516;-51
2023/03/12 01:22:40;;;;;;;1.20;1.00;;;;;;;11.27;47.07;99863.48;106792;1270;24327;-51
2023/03/12 01:25:09;;;;;;;1.20;1.10;;;;;;;11.29;46.91;99872.05;106733;1275;22551;-51
2023/03/12 01:27:38;;;;;;;2.20;1.50;;;;;;;11.30;46.14;99876.91;107005;1255;23906;-51
2023/03/12 01:30:07;;;;;;;2.50;1.50;;;;;;;11.27;45.60;99876.46;107117;1267;23856;-51
2023/03/12 01:32:36;;;;;;;5.60;1.60;;;;;;;11.23;45.57;99888.10;107031;1273;25488;-51
2023/03/12 01:35:05;;;;;;;3.30;1.70;;;;;;;11.15;45.14;99897.08;107057;1267;22550;-50
2023/03/12 01:37:34;;;;;;;4.60;1.70;;;;;;;11.11;45.40;99902.61;106801;1270;22634;-50
2023/03/12 01:40:03;;;;;;;1.80;1.40;;;;;;;11.08;45.34;99911.09;107049;1267;26509;-51
2023/03/12 01:42:32;;;;;;;1.80;1.60;;;;;;;11.02;45.57;99919.27;106771;1266;24359;-51
2023/03/12 01:45:02;;;;;;;1.70;1.50;;;;;;;10.97;45.69;99922.95;106715;1270;25612;-51
2023/03/12 01:47:32;;;;;;;3.30;1.80;;;;;;;10.90;45.94;99928.76;107112;1267;25394;-51
2023/03/12 01:50:04;;;;;;;1.70;1.60;;;;;;;10.88;46.40;99934.00;106909;1267;26499;-50
2023/03/12 01:52:34;;;;;;;1.50;1.40;;;;;;;10.87;46.80;99938.57;107154;1260;22532;-50
2023/03/12 01:55:12;;;;;;;4.40;1.70;;;;;;;10.85;46.87;99946.11;106108;1266;1003065;-51
2023/03/12 01:57:42;;;;;;;2.50;2.10;;;;;;;10.84;46.79;99956.89;106868;1267;25515;-50
2023/03/12 02:00:13;;;;;;;1.70;1.60;;;;;;;10.80;46.55;99959.66;106827;1267;22517;-50
2023/03/12 02:02:43;;;;;;;3.70;1.80;;;;;;;10.73;46.93;99959.54;106777;1267;25379;-52
2023/03/12 02:05:21;;;;;;;3.10;1.60;;;;;;;10.67;47.11;99964.79;106767;1275;25356;-51
2023/03/12 02:07:50;;;;;;;2.10;1.90;;;;;;;10.61;47.22;99971.75;107083;1267;24222;-50
2023/03/12 02:10:20;;;;;;;2.10;1.90;;;;;;;10.57;47.47;99976.07;106821;1270;22511;-50
2023/03/12 02:12:49;;;;;;;2.20;1.70;;;;;;;10.54;47.58;99985.19;106802;1273;24308;-50
2023/03/12 02:15:18;;;;;;;2.30;2.10;;;;;;;10.54;47.66;99988.31;106952;1270;25408;-51
2023/03/12 02:17:47;;;;;;;2.80;1.90;;;;;;;10.54;47.78;99993.16;107014;1269;22633;-51
2023/03/12 02:20:39;;;;;;;1.80;1.60;;;;;;;10.54;47.40;99997.34;106882;1266;25314;-51
2023/03/12 02:23:12;;;;;;;2.10;1.90;;;;;;;10.49;47.45;100006.69;106314;1279;25564;-51
2023/03/12 02:25:51;;;;;;;2.30;2.10;;;;;;;10.44;47.56;100019.17;106291;1273;22536;-51
2023/03/12 02:28:22;;;;;;;2.60;2.40;;;;;;;10.39;47.60;100028.70;106788;1273;24217;-51
2023/03/12 02:30:59;;;;;;;2.50;2.30;;;;;;;10.38;47.58;100034.11;106702;1273;25351;-51
2023/03/12 02:33:28;;;;;;;2.60;2.40;;;;;;;10.33;47.73;100041.03;106733;1260;22571;-51
2023/03/12 02:35:57;;;;;;;2.90;2.50;;;;;;;10.25;47.50;100041.13;106459;1276;25484;-50
2023/03/12 02:38:35;;;;;;;2.90;2.70;;;;;;;10.08;47.50;100054.45;106713;1275;22639;-50
2023/03/12 02:41:11;;;;;;;3.10;2.80;;;;;;;10.01;47.83;100066.10;106720;1276;22533;-51
2023/03/12 02:43:45;;;;;;;3.00;2.80;;;;;;;9.91;47.96;100072.30;105910;1272;1002919;-52
2023/03/12 02:46:14;;;;;;;4.10;2.80;;;;;;;9.91;48.13;100079.94;106709;1272;25297;-51
2023/03/12 02:48:43;;;;;;;3.00;2.70;;;;;;;9.85;48.11;100091.35;106414;1273;22543;-51
2023/03/12 02:51:11;;;;;;;2.90;2.60;;;;;;;9.83;47.92;100095.56;106678;1273;25449;-51
2023/03/12 02:53:40;;;;;;;3.20;2.90;;;;;;;9.81;48.03;100097.35;105990;1272;1003396;-51
2023/03/12 02:56:08;;;;;;;4.50;2.70;;;;;;;9.79;48.14;100102.08;106614;1276;22653;-51
2023/03/12 02:58:39;;;;;;;3.90;2.60;;;;;;;9.77;48.26;100098.50;106662;1273;25424;-51
2023/03/12 03:01:07;;;;;;;2.50;2.30;;;;;;;9.74;48.08;100105.17;106895;1270;25528;-52
2023/03/12 03:03:36;;;;;;;2.60;2.40;;;;;;;9.67;47.84;100107.80;106754;1275;25237;-50
2023/03/12 03:06:04;;;;;;;2.50;2.10;;;;;;;9.59;47.98;100115.99;107106;1266;25382;-51
2023/03/12 03:08:34;;;;;;;2.80;2.30;;;;;;;9.52;48.17;100114.27;106866;1267;22563;-50
2023/03/12 03:11:02;;;;;;;3.00;2.40;;;;;;;9.37;48.35;100119.89;107106;1266;25356;-50
2023/03/12 03:13:31;;;;;;;4.70;2.30;;;;;;;9.32;48.65;100119.35;106986;1269;25232;-50
2023/03/12 03:16:02;;;;;;;2.90;2.40;;;;;;;9.31;48.46;100129.58;105972;1275;1003109;-51
2023/03/12 03:18:34;;;;;;;2.50;2.30;;;;;;;9.24;48.21;100137.89;106859;1270;25328;-51
2023/03/12 03:21:04;;;;;;;2.10;1.90;;;;;;;9.15;48.68;100139.68;106633;1270;25366;-51
2023/03/12 03:23:37;;;;;;;5.00;2.60;;;;;;;9.08;48.85;100145.41;106675;1267;25406;-52
2023/03/12 03:26:05;;;;;;;4.30;2.40;;;;;;;9.03;49.11;100147.44;106824;1267;22527;-52
2023/03/12 03:28:34;;;;;;;3.00;2.60;;;;;;;8.94;49.23;100161.31;107009;1269;24289;-51
2023/03/12 03:31:03;;;;;;;3.20;2.50;;;;;;;8.90;49.75;100175.97;107090;1266;25359;-52
2023/03/12 03:33:35;;;;;;;3.10;2.50;;;;;;;8.86;49.95;100184.54;107137;1251;25405;-51
2023/03/12 03:36:05;;;;;;;2.60;2.20;;;;;;;8.83;50.02;100204.32;106935;1267;22526;-51
2023/03/12 03:38:37;;;;;;;3.00;1.90;;;;;;;8.82;50.23;100212.46;107069;1267;22622;-51
2023/03/12 03:41:06;;;;;;;2.60;2.10;;;;;;;8.84;49.91;100219.36;107136;1266;25350;-51
2023/03/12 03:43:40;;;;;;;2.40;2.20;;;;;;;8.87;49.57;100235.36;107097;1270;25331;-51
2023/03/12 03:46:09;;;;;;;2.40;2.20;;;;;;;8.90;49.26;100241.00;107068;1266;25343;-52
2023/03/12 03:48:40;;;;;;;2.60;1.90;;;;;;;8.92;49.01;100249.95;106842;1271;24224;-51
2023/03/12 03:51:09;;;;;;;2.40;2.20;;;;;;;8.92;48.94;100262.41;107006;1268;25587;-52
2023/03/12 03:53:40;;;;;;;2.10;1.90;;;;;;;8.89;48.85;100261.43;107125;1266;24199;-51
2023/03/12 03:56:10;;;;;;;2.40;2.00;;;;;;;8.88;48.88;100268.05;107077;1266;25372;-52
2023/03/12 03:58:41;;;;;;;1.90;1.80;;;;;;;8.87;48.99;100276.52;106064;1275;1002993;-51
2023/03/12 04:01:14;;;;;;;2.70;2.30;;;;;;;8.87;49.03;100284.66;106339;1266;1002989;-51
2023/03/12 04:03:43;;;;;;;2.30;2.10;;;;;;;8.84;49.04;100292.00;107205;1256;22863;-51
2023/03/12 04:06:14;;;;;;;2.80;2.60;;;;;;;8.80;49.04;100293.45;107045;1266;25402;-51
2023/03/12 04:08:45;;;;;;;2.50;2.30;;;;;;;8.76;49.05;100298.39;106749;1273;25384;-50
2023/03/12 04:11:17;;;;;;;3.00;2.40;;;;;;;8.69;49.17;100299.23;107071;1266;25290;-50
2023/03/12 04:13:46;;;;;;;2.40;2.20;;;;;;;8.64;49.01;100313.86;107030;1267;22645;-50
2023/03/12 04:16:18;;;;;;;3.50;2.20;;;;;;;8.59;49.09;100312.77;106143;1267;1003565;-51
2023/03/12 04:18:48;;;;;;;2.30;1.90;;;;;;;8.55;49.04;100321.84;106991;1267;26496;-51
2023/03/12 04:21:17;;;;;;;3.20;2.20;;;;;;;8.50;48.86;100327.30;107100;1268;25371;-51
2023/03/12 04:23:47;;;;;;;2.40;1.90;;;;;;;8.45;48.76;100338.46;107131;1267;25353;-51
2023/03/12 04:26:16;;;;;;;3.80;2.20;;;;;;;8.36;48.53;100344.86;107033;1266;25392;-51
2023/03/12 04:28:46;;;;;;;4.30;2.10;;;;;;;8.28;48.81;100348.98;106112;1267;1003241;-52
2023/03/12 04:31:16;;;;;;;2.10;1.90;;;;;;;8.24;48.63;100353.17;106266;1269;1002997;-50
2023/03/12 04:33:49;;;;;;;2.30;2.10;;;;;;;8.22;48.79;100362.71;106773;1273;22563;-51
2023/03/12 04:36:19;;;;;;;2.50;1.90;;;;;;;8.19;48.61;100370.54;107025;1269;22543;-51
2023/03/12 04:38:49;;;;;;;1.80;1.60;;;;;;;8.19;48.75;100374.86;107103;1260;24276;-51
2023/03/12 04:41:26;;;;;;;3.40;1.80;;;;;;;8.18;49.05;100385.75;106979;1266;25331;-50
2023/03/12 04:44:11;;;;;;;2.30;1.90;;;;;;;8.20;49.07;100390.91;106950;1267;25344;-50
2023/03/12 04:46:41;;;;;;;2.60;2.10;;;;;;;8.20;48.74;100395.91;106999;1267;24621;-50
2023/03/12 04:49:11;;;;;;;3.20;2.10;;;;;;;8.19;48.90;100404.56;107047;1267;24218;-50
2023/03/12 04:51:40;;;;;;;2.50;2.10;;;;;;;8.13;48.74;100412.62;107016;1268;22626;-50
2023/03/12 04:54:11;;;;;;;2.40;2.00;;;;;;;8.08;48.84;100417.73;107065;1268;25399;-50
2023/03/12 04:56:40;;;;;;;3.30;2.10;;;;;;;8.06;49.22;100432.96;106823;1275;22518;-50
2023/03/12 04:59:10;;;;;;;2.30;1.70;;;;;;;8.04;49.12;100438.02;107048;1267;25366;-51
2023/03/12 05:01:39;;;;;;;2.60;1.80;;;;;;;7.99;48.78;100434.64;107131;1266;24464;-51
2023/03/12 05:04:12;;;;;;;3.10;1.80;;;;;;;7.95;48.64;100441.61;106891;1273;25353;-50
2023/03/12 05:06:41;;;;;;;2.40;2.20;;;;;;;7.94;49.03;100455.09;106088;1272;1003466;-50
2023/03/12 05:09:12;;;;;;;4.30;2.20;;;;;;;7.94;49.07;100464.94;106434;1268;1003055;-50
2023/03/12 05:11:41;;;;;;;2.70;2.00;;;;;;;7.93;48.92;100470.13;106322;1269;1002992;-50
2023/03/12 05:14:13;;;;;;;2.00;1.70;;;;;;;7.92;48.46;100477.57;107049;1274;25408;-50
2023/03/12 05:16:42;;;;;;;2.90;1.60;;;;;;;7.92;48.40;100486.90;106939;1267;24338;-50
2023/03/12 05:19:11;;;;;;;2.70;2.00;;;;;;;7.90;48.36;100491.08;106819;1271;24705;-50
2023/03/12 05:21:41;;;;;;;2.60;1.90;;;;;;;7.90;48.67;100487.45;107051;1268;25486;-51
2023/03/12 05:24:09;;;;;;;2.20;2.00;;;;;;;7.89;48.62;100499.90;106843;1273;24225;-50
2023/03/12 05:26:38;;;;;;;1.60;1.50;;;;;;;7.82;48.43;100504.15;106756;1269;25328;-50
2023/03/12 05:29:25;;;;;;;2.50;1.90;;;;;;;7.89;47.84;100523.04;107127;1267;25337;-50
2023/03/12 05:31:54;;;;;;;1.80;1.60;;;;;;;7.91;47.65;100522.34;106840;1269;22530;-51
2023/03/12 05:34:22;;;;;;;2.90;1.80;;;;;;;7.91;47.24;100532.34;106289;1267;1003077;-51
2023/03/12 05:36:52;;;;;;;2.20;2.00;;;;;;;7.90;47.52;100537.53;106321;1266;1003584;-51
2023/03/12 05:39:24;;;;;;;3.50;2.30;;;;;;;7.92;47.69;100543.38;107098;1266;25397;-53
2023/03/12 05:41:55;;;;;;;3.20;2.10;;;;;;;7.93;47.88;100550.10;107112;1268;22539;-51
2023/03/12 05:44:26;;;;;;;3.10;2.10;;;;;;;7.97;47.54;100569.73;106241;1269;1003222;-51
2023/03/12 05:46:55;;;;;;;4.00;2.20;;;;;;;7.97;47.64;100575.27;107104;1266;25328;-51
2023/03/12 05:49:29;;;;;;;2.20;2.00;;;;;;;7.98;47.73;100584.23;107054;1266;25414;-51
2023/03/12 05:51:57;;;;;;;2.30;2.10;;;;;;;7.98;47.87;100595.80;107002;1268;25359;-50
2023/03/12 05:54:26;;;;;;;2.80;2.40;;;;;;;8.00;47.92;100603.21;106872;1269;22604;-51
2023/03/12 05:56:55;;;;;;;3.50;2.70;;;;;;;7.99;47.62;100606.85;107174;1266;25383;-51
2023/03/12 05:59:25;;;;;;;2.40;2.10;;;;;;;7.99;47.42;100610.99;107128;1266;22524;-51
2023/03/12 06:01:53;;;;;;;2.30;2.10;;;;;;;7.98;47.51;100609.11;106112;1267;1002989;-51
2023/03/12 06:04:23;;;;;;;2.60;2.40;;;;;;;8.01;47.33;100611.14;107137;1270;22633;-51
2023/03/12 06:06:53;;;;;;;2.20;2.00;;;;;;;8.02;47.37;100618.05;107006;1269;24225;-51
2023/03/12 06:09:22;;;;;;;2.40;2.20;;;;;;;8.03;46.93;100619.92;106911;1266;25443;-51
2023/03/12 06:11:50;;;;;;;2.80;2.30;;;;;;;8.04;46.85;100628.38;107087;1269;22525;-50
2023/03/12 06:14:19;;;;;;;3.50;2.50;;;;;;;8.10;47.00;100631.40;107134;1267;25338;-51
2023/03/12 06:16:50;;;;;;;2.70;2.40;;;;;;;8.15;46.95;100647.56;106138;1267;1003659;-52
2023/03/12 06:19:19;;;;;;;3.80;2.50;;;;;;;8.20;47.13;100654.06;105937;1270;1002861;-51
2023/03/12 06:21:55;;;;;;;2.40;2.20;;;;;;;8.31;47.46;100655.86;106809;1266;23217;-51
2023/03/12 06:24:24;;;;;;;4.40;2.40;;;;;;;8.45;46.96;100651.16;106849;1270;25349;-51
2023/03/12 06:27:01;;;;;;;3.10;2.00;;;;;;;8.63;47.02;100653.13;106613;1271;25337;-51
2023/03/12 06:29:30;;;;;;;3.00;2.10;;;;;;;8.78;46.52;100658.25;106743;1266;25337;-51
2023/03/12 06:31:59;;;;;;;4.10;2.30;;;;;;;8.96;45.86;100670.77;106081;1268;1002770;-52
2023/03/12 06:34:33;;;;;;;3.10;2.50;;;;;;;9.18;45.85;100682.16;106966;1270;25347;-51
2023/03/12 06:37:02;;;;;;;2.60;2.00;;;;;;;9.37;45.02;100688.38;107106;1268;25405;-51
2023/03/12 06:39:31;;;;;;;2.30;2.10;;;;;;;9.52;44.12;100696.08;106333;1269;1016090;-50
2023/03/12 06:42:00;;;;;;;3.10;1.90;;;;;;;9.60;43.56;100695.91;107202;1268;25325;-49
2023/03/12 06:44:28;;;;;;;2.10;1.90;;;;;;;9.67;43.70;100693.89;106844;1267;25344;-49
2023/03/12 06:46:58;;;;;;;2.10;1.90;;;;;;;9.79;43.44;100687.92;107131;1267;25390;-50
2023/03/12 06:49:30;;;;;;;2.50;2.10;;;;;;;9.88;43.16;100691.75;107117;1267;25432;-50
2023/03/12 06:51:59;;;;;;;2.50;1.90;;;;;;;9.95;43.25;100696.11;107008;1270;27564;-50
2023/03/12 06:54:29;;;;;;;3.10;2.10;;;;;;;10.08;42.76;100695.16;106359;1268;1002994;-51
2023/03/12 06:57:00;;;;;;;2.10;1.80;;;;;;;10.25;42.18;100713.37;107014;1269;25342;-51
2023/03/12 06:59:29;;;;;;;2.10;1.90;;;;;;;10.38;41.17;100728.34;106970;1267;25356;-50
2023/03/12 07:01:57;;;;;;;4.60;2.10;;;;;;;10.39;41.35;100735.79;107079;1268;25331;-50
2023/03/12 07:04:26;;;;;;;1.90;1.60;;;;;;;10.34;40.96;100755.48;107113;1266;25348;-50
2023/03/12 07:06:54;;;;;;;2.10;1.80;;;;;;;10.26;40.34;100755.30;106254;1270;1003416;-50
2023/03/12 07:09:27;;;;;;;1.90;1.70;;;;;;;10.19;40.47;100764.98;106681;1269;25383;-50
2023/03/12 07:11:56;;;;;;;2.50;1.80;;;;;;;10.14;40.49;100778.08;106955;1268;25375;-51
2023/03/12 07:14:25;;;;;;;2.60;1.80;;;;;;;10.14;40.67;100773.91;106574;1267;22541;-50
2023/03/12 07:17:01;;;;;;;1.70;1.40;;;;;;;10.14;40.54;100781.02;106700;1266;25363;-50
2023/03/12 07:19:30;;;;;;;2.30;1.50;;;;;;;10.13;40.39;100778.98;107149;1268;25350;-50
2023/03/12 07:21:59;;;;;;;2.80;1.80;;;;;;;10.10;40.87;100789.23;106753;1269;25349;-50
2023/03/12 07:24:30;;;;;;;;;;;;;;;10.05;40.78;100799.89;107083;1266;25426;-50
2023/03/12 07:26:59;;;;;;;2.40;1.70;;;;;;;10.00;40.55;100810.91;106386;1254;1002752;-50
2023/03/12 07:29:28;;;;;;;3.10;1.70;;;;;;;9.91;40.38;100815.40;106922;1267;25366;-50
2023/03/12 07:31:56;;;;;;;2.50;1.90;;;;;;;9.80;41.31;100828.23;106828;1267;25338;-49
2023/03/12 07:34:25;;;;;;;3.10;1.70;;;;;;;9.72;41.39;100841.89;106821;1270;25376;-49
2023/03/12 07:36:57;;;;;;;2.20;1.70;;;;;;;9.62;40.95;100848.98;107039;1271;25401;-50
2023/03/12 07:39:25;;;;;;;2.20;2.00;;;;;;;9.52;40.69;100856.94;107123;1266;22536;-50
2023/03/12 07:41:54;;;;;;;2.20;1.70;;;;;;;9.40;40.88;100852.12;107061;1266;24352;-50
2023/03/12 07:44:25;;;;;;;2.50;1.80;;;;;;;9.30;41.37;100844.83;106721;1267;25415;-50
2023/03/12 07:46:53;;;;;;;2.20;1.60;;;;;;;9.28;41.66;100840.19;106722;1267;24313;-50
2023/03/12 07:49:25;;;;;;;1.90;1.70;;;;;;;9.26;41.44;100842.48;106727;1267;22570;-51
2023/03/12 07:51:53;;;;;;;2.50;1.60;;;;;;;9.22;41.22;100858.63;106012;1267;1002834;-50
2023/03/12 07:54:29;;;;;;;3.00;1.80;;;;;;;9.21;41.13;100856.04;106810;1268;25402;-50
2023/03/12 07:56:58;;;;;;;2.50;1.90;;;;;;;9.22;41.52;100858.10;106728;1274;24281;-49
2023/03/12 07:59:27;;;;;;;2.50;1.70;;;;;;;9.22;41.34;100865.71;105951;1266;1015928;-49
2023/03/12 08:01:55;;;;;;;2.60;2.10;;;;;;;9.24;41.32;100862.05;106517;1267;25393;-50
2023/03/12 08:04:24;;;;;;;2.70;1.50;;;;;;;9.28;40.98;100863.21;106984;1267;22527;-50
2023/03/12 08:06:56;;;;;;;2.20;1.60;;;;;;;9.30;40.89;100864.39;106793;1273;25492;-50
2023/03/12 08:09:24;;;;;;;2.60;1.30;;;;;;;9.36;40.84;100878.33;106870;1271;24308;-50
2023/03/12 08:11:53;;;;;;;2.00;1.40;;;;;;;9.42;40.42;100885.15;107024;1267;26582;-50
2023/03/12 08:14:21;;;;;;;2.10;1.60;;;;;;;9.44;39.85;100877.52;106212;1270;1003013;-49
2023/03/12 08:16:52;;;;;;;1.60;1.30;;;;;;;9.44;40.36;100886.67;107111;1266;23870;-50
2023/03/12 08:19:23;;;;;;;8.70;1.60;;;;;;;9.42;40.13;100889.64;106378;1268;1003608;-50
2023/03/12 08:21:52;;;;;;;2.00;1.50;;;;;;;9.41;40.42;100890.71;107096;1268;22514;-50
2023/03/12 08:24:21;;;;;;;3.10;1.30;;;;;;;9.42;40.94;100907.14;107057;1267;25401;-50
2023/03/12 08:26:49;;;;;;;2.60;1.80;;;;;;;9.42;40.89;100911.98;107095;1266;25433;-51
2023/03/12 08:29:19;;;;;;;2.20;1.50;;;;;;;9.42;40.46;100918.56;106781;1267;23318;-50
2023/03/12 08:31:47;;;;;;;2.50;1.80;;;;;;;9.42;40.62;100928.95;107026;1270;22632;-50
2023/03/12 08:34:32;;;;;;;2.70;1.50;;;;;;;9.44;40.80;100931.34;106389;1267;1003750;-50
2023/03/12 08:37:01;;;;;;;2.60;1.50;;;;;;;9.51;40.49;100939.73;106322;1270;1003087;-50
2023/03/12 08:39:30;;;;;;;2.80;1.70;;;;;;;9.52;39.46;100934.17;107140;1266;22539;-50
2023/03/12 08:42:00;;;;;;;2.00;1.10;;;;;;;9.48;40.07;100940.81;107151;1266;25347;-50
2023/03/12 08:44:28;;;;;;;2.10;1.50;;;;;;;9.49;40.91;100954.65;107090;1269;25338;-50
2023/03/12 08:46:57;;;;;;;2.00;1.80;;;;;;;9.51;40.50;100955.86;107056;1268;22632;-50
2023/03/12 08:49:26;;;;;;;1.90;1.30;;;;;;;9.46;40.37;100963.19;107033;1268;25403;-49
2023/03/12 08:51:54;;;;;;;2.00;1.30;;;;;;;9.39;40.12;100968.12;106292;1275;1002918;-50
2023/03/12 08:54:23;;;;;;;2.10;1.50;;;;;;;9.35;41.02;100972.69;107013;1266;25414;-50
2023/03/12 08:56:51;;;;;;;2.90;1.40;;;;;;;9.34;40.48;100969.41;107160;1252;25359;-50
2023/03/12 08:59:22;;;;;;;2.20;1.60;;;;;;;9.33;39.83;100973.91;107041;1268;25338;-50
2023/03/12 09:01:51;;;;;;;1.60;1.40;;;;;;;9.32;40.05;100974.63;107043;1266;24569;-50
2023/03/12 09:04:20;;;;;;;1.90;1.50;;;;;;;9.29;39.87;100978.48;107021;1266;25325;-50
2023/03/12 09:06:48;;;;;;;2.10;1.70;;;;;;;9.26;39.91;100994.27;107104;1268;25312;-50
2023/03/12 09:09:17;;;;;;;2.20;1.60;;;;;;;9.28;40.80;100992.88;107152;1266;25354;-50
2023/03/12 09:11:46;;;;;;;2.10;1.80;;;;;;;9.30;40.49;100992.14;106977;1267;25453;-49
2023/03/12 09:14:19;;;;;;;2.60;1.70;;;;;;;9.34;40.26;100989.50;107024;1267;25370;-50
2023/03/12 09:17:08;;;;;;;2.90;2.00;;;;;;;9.37;40.61;100983.04;107165;1268;25411;-49
2023/03/12 09:19:38;;;;;;;2.10;1.60;;;;;;;9.42;40.65;100983.49;106983;1266;25418;-50
2023/03/12 09:22:08;;;;;;;3.90;1.80;;;;;;;9.45;40.77;100984.67;106311;1266;1003640;-50
2023/03/12 09:24:37;;;;;;;2.50;1.80;;;;;;;9.44;40.43;100985.55;106360;1266;1002792;-50
2023/03/12 09:27:05;;;;;;;2.00;1.80;;;;;;;9.43;40.54;100987.13;107073;1267;25328;-49
2023/03/12 09:29:35;;;;;;;2.00;1.70;;;;;;;9.43;39.74;100997.35;107083;1267;25353;-50
2023/03/12 09:32:15;;;;;;;3.80;2.00;;;;;;;9.42;40.15;101005.48;107085;1266;25382;-49
2023/03/12 09:34:44;;;;;;;1.90;1.30;;;;;;;9.43;40.26;101009.98;107044;1267;22632;-50
2023/03/12 09:37:14;;;;;;;1.90;1.50;;;;;;;9.41;39.58;101011.39;107050;1267;25369;-49
2023/03/12 09:39:42;;;;;;;3.10;2.00;;;;;;;9.36;39.37;101013.53;107164;1266;24205;-50
2023/03/12 09:42:19;;;;;;;3.30;1.80;;;;;;;9.33;39.81;101009.77;106862;1270;25564;-49
2023/03/12 09:44:47;;;;;;;3.10;1.50;;;;;;;9.38;40.17;101007.98;106926;1267;24312;-49
2023/03/12 09:47:52;;;;;;;1.70;1.60;;;;;;;9.44;40.10;101009.44;106105;1267;1002978;-50
2023/03/12 09:50:34;;;;;;;3.90;2.00;;;;;;;9.56;40.14;101008.76;106761;1272;25385;-50
2023/03/12 09:53:11;;;;;;;3.80;1.80;;;;;;;9.63;39.09;101011.09;106440;1271;25375;-49
2023/03/12 09:55:44;;;;;;;2.30;1.60;;;;;;;9.69;39.87;101018.81;105949;1277;1002745;-49
2023/03/12 09:58:21;;;;;;;2.40;1.90;;;;;;;9.77;40.07;101026.84;106737;1272;25366;-49
2023/03/12 10:00:50;;;;;;;;;;;;;;;9.81;40.48;101031.10;106762;1272;24210;-49
2023/03/12 10:03:51;;;;;;;2.30;1.80;;;;;;;9.85;40.67;101038.31;106769;1272;25421;-49
2023/03/12 10:06:22;;;;;;;;;;;;;;;9.90;39.36;101037.58;105962;1281;25428;-50
2023/03/12 10:08:53;;;;;;;2.00;1.80;;;;;;;9.91;38.70;101037.90;105497;1280;1003838;-49
2023/03/12 10:11:53;;;;;;;2.00;1.70;;;;;;;9.91;38.07;101043.79;106259;1281;25345;-50
2023/03/12 10:14:41;;;;;;;1.70;1.60;;;;;;;9.93;38.81;101041.17;106153;1280;22650;-50
2023/03/12 10:17:15;;;;;;;2.90;1.90;;;;;;;9.96;39.50;101041.11;106025;1284;25377;-49
2023/03/12 10:19:56;;;;;;;1.90;1.70;;;;;;;9.97;39.78;101049.25;106118;1279;25489;-49
2023/03/12 10:22:44;;;;;;;2.00;1.50;;;;;;;9.97;39.42;101052.72;106172;1280;22545;-49
2023/03/12 10:25:26;;;;;;;2.30;2.10;;;;;;;9.93;38.72;101057.63;106155;1280;25142;-50
2023/03/12 10:27:59;;;;;;;1.90;1.50;;;;;;;9.84;38.87;101058.10;106300;1282;24265;-49
2023/03/12 10:30:28;;;;;;;4.10;1.60;;;;;;;9.75;39.49;101061.69;106534;1273;22523;-50
2023/03/12 10:33:03;;;;;;;2.00;1.50;;;;;;;9.71;39.27;101058.44;106321;1277;25600;-49
2023/03/12 10:35:31;;;;;;;2.10;1.70;;;;;;;9.71;39.16;101061.39;106381;1275;25464;-50
2023/03/12 10:38:03;;;;;;;2.10;1.70;;;;;;;9.75;39.28;101062.73;106574;1275;22539;-50
2023/03/12 10:40:35;;;;;;;1.70;1.60;;;;;;;9.79;39.10;101066.65;106415;1273;25256;-49
2023/03/12 10:43:06;;;;;;;2.40;1.60;;;;;;;9.80;38.63;101070.10;106700;1272;25425;-50
2023/03/12 10:45:36;;;;;;;2.20;1.60;;;;;;;9.81;38.62;101074.77;106858;1271;25356;-49
2023/03/12 10:48:07;;;;;;;2.70;1.70;;;;;;;9.80;38.62;101077.73;107080;1266;24398;-49
2023/03/12 10:50:37;;;;;;;1.60;1.40;;;;;;;9.81;38.69;101075.27;107034;1266;24251;-49
2023/03/12 10:53:28;;;;;;;1.80;1.50;;;;;;;9.83;37.67;101069.02;106377;1267;1002851;-49
2023/03/12 10:56:03;;;;;;;;;;;;;;;9.83;36.93;101066.95;107076;1268;25246;-49
2023/03/12 10:58:40;;;;;;;2.70;1.70;;;;;;;9.80;37.11;101065.08;107117;1266;24224;-50
2023/03/12 11:01:21;;;;;;;2.40;1.30;;;;;;;9.81;37.36;101061.44;107141;1267;25354;-50
2023/03/12 11:03:51;;;;;;;4.00;1.40;;;;;;;9.88;37.77;101066.89;106326;1266;1003193;-49
2023/03/12 11:06:26;;;;;;;2.50;1.60;;;;;;;9.98;38.55;101071.23;106971;1268;25488;-49
2023/03/12 11:09:08;;;;;;;2.30;1.60;;;;;;;10.13;38.07;101075.73;106797;1271;22628;-48
2023/03/12 11:11:46;;;;;;;2.30;1.80;;;;;;;10.28;37.66;101077.24;107043;1267;22530;-48
2023/03/12 11:14:25;;;;;;;1.80;1.60;;;;;;;10.34;37.67;101081.48;107026;1267;24255;-49
2023/03/12 11:16:55;;;;;;;2.20;1.60;;;;;;;10.34;37.44;101084.25;107015;1266;24185;-49
2023/03/12 11:19:31;;;;;;;2.80;1.80;;;;;;;10.33;37.69;101087.73;106763;1274;25324;-49
2023/03/12 11:22:07;;;;;;;1.90;1.60;;;;;;;10.34;36.92;101093.62;106347;1268;1003179;-49
2023/03/12 11:24:40;;;;;;;2.10;1.50;;;;;;;10.30;36.94;101094.02;107100;1266;22639;-49
2023/03/12 11:27:36;;;;;;;2.00;1.60;;;;;;;10.26;37.28;101085.23;106918;1254;25214;-49
2023/03/12 11:30:06;;;;;;;2.40;1.80;;;;;;;10.27;37.72;101091.12;107045;1268;22531;-49
2023/03/12 11:32:43;;;;;;;1.50;1.40;;;;;;;10.26;37.67;101099.45;106142;1267;1004617;-49
2023/03/12 11:35:13;;;;;;;1.90;1.30;;;;;;;10.22;36.87;101099.18;107065;1266;24228;-49
2023/03/12 11:38:07;;;;;;;1.50;1.20;;;;;;;10.20;36.23;101100.24;107107;1268;22649;-49
2023/03/12 11:40:59;;;;;;;2.80;2.20;;;;;;;10.14;36.15;101099.13;106371;1266;1002715;-48
2023/03/12 11:43:46;;;;;;;3.00;1.60;;;;;;;10.09;37.03;101102.11;106228;1269;1003455;-49
2023/03/12 11:47:00;;;;;;;1.60;1.50;;;;;;;10.03;37.28;101106.69;107086;1265;25328;-48